createdAt,value
2022-11-27T00:00:49.562Z,5.00
2022-11-27T00:03:17.516Z,4.92
2022-11-27T00:05:52.193Z,5.00
2022-11-27T00:08:20.174Z,4.97
2022-11-27T00:10:48.005Z,4.95
2022-11-27T00:13:15.767Z,4.91
2022-11-27T00:15:45.020Z,4.91
2022-11-27T00:18:13.181Z,4.85
2022-11-27T00:20:41.262Z,4.88
2022-11-27T00:23:09.100Z,4.87
2022-11-27T00:25:36.901Z,4.92
2022-11-27T00:28:04.810Z,4.96
2022-11-27T00:30:32.676Z,4.84
2022-11-27T00:33:01.961Z,4.84
2022-11-27T00:35:29.735Z,4.76
2022-11-27T00:37:57.536Z,4.73
2022-11-27T00:40:25.376Z,4.67
2022-11-27T00:42:53.239Z,4.61
2022-11-27T00:45:21.272Z,4.57
2022-11-27T00:47:49.124Z,4.43
2022-11-27T00:50:20.855Z,4.36
2022-11-27T00:52:49.029Z,4.34
2022-11-27T00:55:16.826Z,4.31
2022-11-27T00:57:44.610Z,4.27
2022-11-27T01:00:13.103Z,4.33
2022-11-27T01:02:40.926Z,4.39
2022-11-27T01:05:09.189Z,4.46
2022-11-27T01:07:38.358Z,4.47
2022-11-27T01:10:06.841Z,4.39
2022-11-27T01:12:34.674Z,4.54
2022-11-27T01:15:02.509Z,4.47
2022-11-27T01:17:30.579Z,4.35
2022-11-27T01:19:58.377Z,4.33
2022-11-27T01:22:26.201Z,4.29
2022-11-27T01:24:55.347Z,4.24
2022-11-27T01:27:23.265Z,4.25
2022-11-27T01:29:51.307Z,4.16
2022-11-27T01:32:19.115Z,4.15
2022-11-27T01:34:46.927Z,4.14
2022-11-27T01:37:14.789Z,4.16
2022-11-27T01:39:57.476Z,4.19
2022-11-27T01:42:26.805Z,4.16
2022-11-27T01:44:55.909Z,4.07
2022-11-27T01:47:30.521Z,4.09
2022-11-27T01:50:01.435Z,4.03
2022-11-27T01:52:33.292Z,4.03
2022-11-27T01:55:05.623Z,4.07
2022-11-27T01:57:38.727Z,4.14
2022-11-27T02:00:07.887Z,4.07
2022-11-27T02:02:35.766Z,4.01
2022-11-27T02:05:03.714Z,4.05
2022-11-27T02:07:33.534Z,3.97
2022-11-27T02:10:01.492Z,3.96
2022-11-27T02:12:34.496Z,3.95
2022-11-27T02:15:09.361Z,3.86
2022-11-27T02:17:41.932Z,3.78
2022-11-27T02:20:19.191Z,3.83
2022-11-27T02:22:57.441Z,3.67
2022-11-27T02:25:31.895Z,3.48
2022-11-27T02:28:06.019Z,3.34
2022-11-27T02:30:38.482Z,3.21
2022-11-27T02:33:09.466Z,3.21
2022-11-27T02:35:42.175Z,3.11
2022-11-27T02:38:12.016Z,3.14
2022-11-27T02:40:42.413Z,3.00
2022-11-27T02:43:12.923Z,2.93
2022-11-27T02:45:43.741Z,2.88
2022-11-27T02:48:13.676Z,2.81
2022-11-27T02:50:44.051Z,2.74
2022-11-27T02:53:13.746Z,2.62
2022-11-27T02:55:43.760Z,2.76
2022-11-27T02:58:14.002Z,2.80
2022-11-27T03:00:45.556Z,2.74
2022-11-27T03:03:15.603Z,2.61
2022-11-27T03:05:44.763Z,2.67
2022-11-27T03:08:15.401Z,2.65
2022-11-27T03:10:47.236Z,2.71
2022-11-27T03:13:15.319Z,2.58
2022-11-27T03:15:48.860Z,2.80
2022-11-27T03:18:22.215Z,2.81
2022-11-27T03:20:54.435Z,2.85
2022-11-27T03:23:22.485Z,3.02
2022-11-27T03:25:50.319Z,3.03
2022-11-27T03:28:18.395Z,3.06
2022-11-27T03:30:47.799Z,3.09
2022-11-27T03:33:15.617Z,3.20
2022-11-27T03:35:43.464Z,3.16
2022-11-27T03:38:11.284Z,3.27
2022-11-27T03:40:46.072Z,3.42
2022-11-27T03:43:15.327Z,3.45
2022-11-27T03:45:49.990Z,3.53
2022-11-27T03:48:24.394Z,3.56
2022-11-27T03:50:57.668Z,3.71
2022-11-27T03:53:28.103Z,3.78
2022-11-27T03:56:04.203Z,3.78
2022-11-27T03:58:36.921Z,3.89
2022-11-27T04:01:06.693Z,3.92
2022-11-27T04:03:36.608Z,4.06
2022-11-27T04:06:04.814Z,3.98
2022-11-27T04:08:32.878Z,4.07
2022-11-27T04:11:00.883Z,4.13
2022-11-27T04:13:28.653Z,4.19
2022-11-27T04:15:56.541Z,4.30
2022-11-27T04:18:24.396Z,4.38
2022-11-27T04:20:53.592Z,4.32
2022-11-27T04:23:21.619Z,4.40
2022-11-27T04:25:49.685Z,4.33
2022-11-27T04:28:18.074Z,4.35
2022-11-27T04:30:45.883Z,4.40
2022-11-27T04:33:13.692Z,4.31
2022-11-27T04:35:41.705Z,4.33
2022-11-27T04:38:10.864Z,4.34
2022-11-27T04:40:38.684Z,4.31
2022-11-27T04:43:06.505Z,4.39
2022-11-27T04:45:34.411Z,4.45
2022-11-27T04:48:02.444Z,4.40
2022-11-27T04:50:30.284Z,4.55
2022-11-27T04:52:58.118Z,4.66
2022-11-27T04:55:27.376Z,4.64
2022-11-27T04:57:55.174Z,4.67
2022-11-27T05:00:23.211Z,4.78
2022-11-27T05:02:51.080Z,4.79
2022-11-27T05:05:18.946Z,4.92
2022-11-27T05:07:47.010Z,4.93
2022-11-27T05:10:14.871Z,5.02
2022-11-27T05:12:44.376Z,5.04
2022-11-27T05:15:12.515Z,4.92
2022-11-27T05:17:40.408Z,5.00
2022-11-27T05:20:08.865Z,5.07
2022-11-27T05:22:36.746Z,5.15
2022-11-27T05:25:04.985Z,5.03
2022-11-27T05:27:32.798Z,5.11
2022-11-27T05:30:01.978Z,5.21
2022-11-27T05:32:29.885Z,5.23
2022-11-27T05:34:57.824Z,5.19
2022-11-27T05:37:26.011Z,5.14
2022-11-27T05:39:53.878Z,5.14
2022-11-27T05:42:21.737Z,5.16
2022-11-27T05:44:53.908Z,5.03
2022-11-27T05:47:26.134Z,5.08
2022-11-27T05:49:54.024Z,5.16
2022-11-27T05:52:22.013Z,5.18
2022-11-27T05:54:49.828Z,5.20
2022-11-27T05:57:17.602Z,5.31
2022-11-27T05:59:49.060Z,5.23
2022-11-27T06:02:21.754Z,5.13
2022-11-27T06:04:52.008Z,5.18
2022-11-27T06:07:20.152Z,5.27
2022-11-27T06:09:48.064Z,5.25
2022-11-27T06:12:15.874Z,5.18
2022-11-27T06:14:43.783Z,5.29
2022-11-27T06:17:11.910Z,5.17
2022-11-27T06:19:39.823Z,5.22
2022-11-27T06:22:09.037Z,5.25
2022-11-27T06:24:36.844Z,5.22
2022-11-27T06:27:04.794Z,5.16
2022-11-27T06:29:32.853Z,5.22
2022-11-27T06:32:00.753Z,5.18
2022-11-27T06:34:28.655Z,5.21
2022-11-27T06:36:56.456Z,5.23
2022-11-27T06:39:25.593Z,5.21
2022-11-27T06:41:53.606Z,5.26
2022-11-27T06:44:21.543Z,5.36
2022-11-27T06:46:49.364Z,5.32
2022-11-27T06:49:17.211Z,5.33
2022-11-27T06:51:45.007Z,5.36
2022-11-27T06:54:12.950Z,5.32
2022-11-27T06:56:42.208Z,5.39
2022-11-27T06:59:14.415Z,5.38
2022-11-27T07:01:42.789Z,5.43
2022-11-27T07:04:11.774Z,5.34
2022-11-27T07:06:40.120Z,5.44
2022-11-27T07:09:08.187Z,5.51
2022-11-27T07:11:36.173Z,5.47
2022-11-27T07:14:05.923Z,5.55
2022-11-27T07:16:34.729Z,5.66
2022-11-27T07:19:03.629Z,5.58
2022-11-27T07:21:31.524Z,5.60
2022-11-27T07:23:59.591Z,5.60
2022-11-27T07:26:28.920Z,5.71
2022-11-27T07:28:57.301Z,5.78
2022-11-27T07:31:28.506Z,5.87
2022-11-27T07:33:57.153Z,5.86
2022-11-27T07:36:25.854Z,5.90
2022-11-27T07:38:53.970Z,5.97
2022-11-27T07:41:21.835Z,6.06
2022-11-27T07:43:49.804Z,6.24
2022-11-27T07:46:19.282Z,6.25
2022-11-27T07:48:48.817Z,6.21
2022-11-27T07:51:18.015Z,6.30
2022-11-27T07:53:46.095Z,6.26
2022-11-27T07:56:14.625Z,6.20
2022-11-27T07:58:42.636Z,6.29
2022-11-27T08:01:11.795Z,6.37
2022-11-27T08:03:39.706Z,6.35
2022-11-27T08:06:15.982Z,6.35
2022-11-27T08:08:44.514Z,6.35
2022-11-27T08:11:19.781Z,6.40
2022-11-27T08:13:47.979Z,6.42
2022-11-27T08:16:16.129Z,6.53
2022-11-27T08:18:44.040Z,6.59
2022-11-27T08:21:11.869Z,6.80
2022-11-27T08:23:41.395Z,6.93
2022-11-27T08:26:10.698Z,7.06
2022-11-27T08:28:38.975Z,7.20
2022-11-27T08:31:07.989Z,7.28
2022-11-27T08:33:36.227Z,7.44
2022-11-27T08:36:04.309Z,7.59
2022-11-27T08:38:32.148Z,7.54
2022-11-27T08:41:05.422Z,7.54
2022-11-27T08:43:36.245Z,7.66
2022-11-27T08:46:04.954Z,7.74
2022-11-27T08:48:32.813Z,7.76
2022-11-27T08:51:00.664Z,7.88
2022-11-27T08:53:28.514Z,7.83
2022-11-27T08:55:56.484Z,7.95
2022-11-27T08:58:25.648Z,8.03
2022-11-27T09:00:53.486Z,8.01
2022-11-27T09:03:21.360Z,7.98
2022-11-27T09:05:49.233Z,7.96
2022-11-27T09:08:21.375Z,8.03
2022-11-27T09:10:49.343Z,8.10
2022-11-27T09:13:17.210Z,8.29
2022-11-27T09:15:46.337Z,8.47
2022-11-27T09:18:16.066Z,8.65
2022-11-27T09:20:43.950Z,8.78
2022-11-27T09:23:14.504Z,8.86
2022-11-27T09:25:44.898Z,8.90
2022-11-27T09:28:13.031Z,8.85
2022-11-27T09:30:40.842Z,8.67
2022-11-27T09:33:09.998Z,8.47
2022-11-27T09:35:38.216Z,8.33
2022-11-27T09:38:06.364Z,8.24
2022-11-27T09:40:35.004Z,8.26
2022-11-27T09:43:09.510Z,8.22
2022-11-27T09:45:42.608Z,8.17
2022-11-27T09:48:17.640Z,8.26
2022-11-27T09:50:51.254Z,8.30
2022-11-27T09:53:23.542Z,8.42
2022-11-27T09:56:01.595Z,8.52
2022-11-27T09:58:36.761Z,8.66
2022-11-27T10:01:11.638Z,8.80
2022-11-27T10:03:41.449Z,9.01
2022-11-27T10:06:21.080Z,9.17
2022-11-27T10:08:53.309Z,9.45
2022-11-27T10:11:28.460Z,9.52
2022-11-27T10:14:04.732Z,9.68
2022-11-27T10:16:41.375Z,9.84
2022-11-27T10:19:19.469Z,9.89
2022-11-27T10:21:50.235Z,9.97
2022-11-27T10:24:21.344Z,10.05
2022-11-27T10:26:50.027Z,10.11
2022-11-27T10:29:26.399Z,9.84
2022-11-27T10:31:57.424Z,9.60
2022-11-27T10:34:32.346Z,9.63
2022-11-27T10:37:02.023Z,9.69
2022-11-27T10:39:33.907Z,9.73
2022-11-27T10:42:10.603Z,9.78
2022-11-27T10:44:40.788Z,9.77
2022-11-27T10:47:11.228Z,9.77
2022-11-27T10:49:42.736Z,9.72
2022-11-27T10:52:14.006Z,9.89
2022-11-27T10:54:42.760Z,9.92
2022-11-27T10:57:30.021Z,9.75
2022-11-27T11:00:04.945Z,9.80
2022-11-27T11:02:34.992Z,9.81
2022-11-27T11:05:56.986Z,9.63
2022-11-27T11:08:16.909Z,9.71
2022-11-27T11:10:50.397Z,9.77
2022-11-27T11:13:20.441Z,9.62
2022-11-27T11:15:51.949Z,9.56
2022-11-27T11:18:20.844Z,9.66
2022-11-27T11:20:52.263Z,9.68
2022-11-27T11:23:22.823Z,9.74
2022-11-27T11:25:51.621Z,9.77
2022-11-27T11:28:20.852Z,9.70
2022-11-27T11:30:57.872Z,9.83
2022-11-27T11:33:27.199Z,9.92
2022-11-27T11:36:01.210Z,9.99
2022-11-27T11:38:31.967Z,10.02
2022-11-27T11:41:01.998Z,9.94
2022-11-27T11:43:30.873Z,9.99
2022-11-27T11:46:07.065Z,9.86
2022-11-27T11:48:35.304Z,9.75
2022-11-27T11:51:08.992Z,9.70
2022-11-27T11:53:39.942Z,9.73
2022-11-27T11:56:17.664Z,9.65
2022-11-27T11:58:52.418Z,9.61
2022-11-27T12:01:27.889Z,9.66
2022-11-27T12:04:03.228Z,9.60
2022-11-27T12:06:43.422Z,9.46
2022-11-27T12:09:18.119Z,9.57
2022-11-27T12:11:50.039Z,9.50
2022-11-27T12:14:25.742Z,9.55
2022-11-27T12:17:05.522Z,9.54
2022-11-27T12:19:42.711Z,9.40
2022-11-27T12:22:19.862Z,9.33
2022-11-27T12:24:52.319Z,9.31
2022-11-27T12:27:29.287Z,9.29
2022-11-27T12:30:06.224Z,9.15
2022-11-27T12:32:46.779Z,8.96
2022-11-27T12:35:27.755Z,8.81
2022-11-27T12:38:01.963Z,8.68
2022-11-27T12:40:36.485Z,8.63
2022-11-27T12:43:09.388Z,8.55
2022-11-27T12:45:39.833Z,8.50
2022-11-27T12:48:13.471Z,8.49
2022-11-27T12:50:43.405Z,8.54
2022-11-27T12:53:23.178Z,8.59
2022-11-27T12:55:57.102Z,8.59
2022-11-27T12:58:27.947Z,8.72
2022-11-27T13:01:08.943Z,8.76
2022-11-27T13:03:41.622Z,8.85
2022-11-27T13:06:12.144Z,8.91
2022-11-27T13:08:52.222Z,8.94
2022-11-27T13:11:24.892Z,8.97
2022-11-27T13:13:54.792Z,9.03
2022-11-27T13:16:26.194Z,9.05
2022-11-27T13:18:57.469Z,9.10
2022-11-27T13:21:27.859Z,9.19
2022-11-27T13:24:00.731Z,9.23
2022-11-27T13:26:31.424Z,9.23
2022-11-27T13:29:01.219Z,9.23
2022-11-27T13:31:30.466Z,9.19
2022-11-27T13:34:00.349Z,9.26
2022-11-27T13:36:34.709Z,9.15
2022-11-27T13:39:06.129Z,9.11
2022-11-27T13:41:34.769Z,8.96
2022-11-27T13:44:04.227Z,8.85
2022-11-27T13:46:44.954Z,8.74
2022-11-27T13:49:22.263Z,8.82
2022-11-27T13:51:50.222Z,8.81
2022-11-27T13:54:25.885Z,8.83
2022-11-27T13:56:56.780Z,8.92
2022-11-27T13:59:26.018Z,8.88
2022-11-27T14:01:54.512Z,8.95
2022-11-27T14:04:22.354Z,8.93
2022-11-27T14:06:53.423Z,8.92
2022-11-27T14:09:32.402Z,8.98
2022-11-27T14:12:00.423Z,8.96
2022-11-27T14:14:29.297Z,9.01
2022-11-27T14:16:58.488Z,9.00
2022-11-27T14:19:34.358Z,8.95
2022-11-27T14:22:03.227Z,8.89
2022-11-27T14:24:41.292Z,8.84
2022-11-27T14:27:17.457Z,8.81
2022-11-27T14:29:46.042Z,8.93
2022-11-27T14:32:15.277Z,8.86
2022-11-27T14:34:44.935Z,8.81
2022-11-27T14:37:23.979Z,8.94
2022-11-27T14:39:53.543Z,8.92
2022-11-27T14:42:27.892Z,9.00
2022-11-27T14:45:03.849Z,9.04
2022-11-27T14:47:33.015Z,8.98
2022-11-27T14:50:01.299Z,8.97
2022-11-27T14:52:29.243Z,8.88
2022-11-27T14:54:58.626Z,8.97
2022-11-27T14:57:28.071Z,8.88
2022-11-27T15:00:04.759Z,8.87
2022-11-27T15:02:33.248Z,8.81
2022-11-27T15:05:05.252Z,8.74
2022-11-27T15:07:41.888Z,8.77
2022-11-27T15:10:32.076Z,8.72
2022-11-27T15:13:03.389Z,8.57
2022-11-27T15:15:34.606Z,8.42
2022-11-27T15:18:06.564Z,8.38
2022-11-27T15:20:36.895Z,8.29
2022-11-27T15:23:06.500Z,8.10
2022-11-27T15:25:37.692Z,7.94
2022-11-27T15:28:25.646Z,7.80
2022-11-27T15:30:54.259Z,7.83
2022-11-27T15:33:26.197Z,7.85
2022-11-27T15:35:56.438Z,7.84
2022-11-27T15:38:28.590Z,7.78
2022-11-27T15:41:01.080Z,7.80
2022-11-27T15:43:29.051Z,7.83
2022-11-27T15:45:57.105Z,7.86
2022-11-27T15:48:26.807Z,7.88
2022-11-27T15:50:54.678Z,7.91
2022-11-27T15:53:22.524Z,7.95
2022-11-27T15:55:50.518Z,7.98
2022-11-27T15:58:19.657Z,8.01
2022-11-27T16:00:47.534Z,8.07
2022-11-27T16:03:15.604Z,8.17
2022-11-27T16:05:43.434Z,8.15
2022-11-27T16:08:11.750Z,8.10
2022-11-27T16:10:40.524Z,8.07
2022-11-27T16:13:08.381Z,8.06
2022-11-27T16:15:37.546Z,8.01
2022-11-27T16:18:07.022Z,8.11
2022-11-27T16:20:35.030Z,8.06
2022-11-27T16:23:02.836Z,8.08
2022-11-27T16:25:30.651Z,8.16
2022-11-27T16:28:02.778Z,8.16
2022-11-27T16:30:31.396Z,8.16
2022-11-27T16:33:00.612Z,8.09
2022-11-27T16:35:28.455Z,8.09
2022-11-27T16:37:56.263Z,8.03
2022-11-27T16:40:24.572Z,8.21
2022-11-27T16:42:52.561Z,8.26
2022-11-27T16:45:23.172Z,8.28
2022-11-27T16:47:50.966Z,8.24
2022-11-27T16:50:20.200Z,8.16
2022-11-27T16:52:53.978Z,8.16
2022-11-27T16:55:22.548Z,8.22
2022-11-27T16:57:50.384Z,8.15
2022-11-27T17:00:18.718Z,8.22
2022-11-27T17:02:46.607Z,8.16
2022-11-27T17:05:14.473Z,8.15
2022-11-27T17:07:43.913Z,8.20
2022-11-27T17:10:11.866Z,8.20
2022-11-27T17:12:39.739Z,8.16
2022-11-27T17:15:07.994Z,8.13
2022-11-27T17:17:40.158Z,8.13
2022-11-27T17:20:09.588Z,8.16
2022-11-27T17:22:37.499Z,8.18
2022-11-27T17:25:10.927Z,8.19
2022-11-27T17:27:38.940Z,8.16
2022-11-27T17:30:07.419Z,8.17
2022-11-27T17:32:35.229Z,8.13
2022-11-27T17:35:03.055Z,8.07
2022-11-27T17:37:30.923Z,8.11
2022-11-27T17:39:59.024Z,8.14
2022-11-27T17:42:28.392Z,8.16
2022-11-27T17:44:56.369Z,8.15
2022-11-27T17:47:24.240Z,8.09
2022-11-27T17:49:52.068Z,8.05
2022-11-27T17:52:20.081Z,8.09
2022-11-27T17:54:47.921Z,8.04
2022-11-27T17:57:15.757Z,8.05
2022-11-27T17:59:45.024Z,8.11
2022-11-27T18:02:12.902Z,7.98
2022-11-27T18:04:40.952Z,7.83
2022-11-27T18:07:08.790Z,7.77
2022-11-27T18:09:36.740Z,7.72
2022-11-27T18:12:06.280Z,7.61
2022-11-27T18:14:38.092Z,7.55
2022-11-27T18:17:10.603Z,7.56
2022-11-27T18:19:42.885Z,7.44
2022-11-27T18:22:13.167Z,7.47
2022-11-27T18:24:44.769Z,7.43
2022-11-27T18:27:21.185Z,7.62
2022-11-27T18:29:50.112Z,7.69
2022-11-27T18:32:20.015Z,7.69
2022-11-27T18:34:48.301Z,7.83
2022-11-27T18:37:16.306Z,7.89
2022-11-27T18:39:45.324Z,8.00
2022-11-27T18:42:14.264Z,7.96
2022-11-27T18:44:44.986Z,8.00
2022-11-27T18:47:13.580Z,7.96
2022-11-27T18:49:43.290Z,7.96
2022-11-27T18:52:14.231Z,7.88
2022-11-27T18:54:42.724Z,7.85
2022-11-27T18:57:11.084Z,7.82
2022-11-27T18:59:39.434Z,7.84
2022-11-27T19:02:07.956Z,7.82
2022-11-27T19:04:36.382Z,7.78
2022-11-27T19:07:05.767Z,7.75
2022-11-27T19:09:33.733Z,7.75
2022-11-27T19:12:01.568Z,7.76
2022-11-27T19:14:29.481Z,7.80
2022-11-27T19:16:58.404Z,7.77
2022-11-27T19:19:53.459Z,7.82
2022-11-27T19:22:17.026Z,7.73
2022-11-27T19:24:45.044Z,7.65
2022-11-27T19:27:13.096Z,7.66
2022-11-27T19:29:41.749Z,7.61
2022-11-27T19:32:11.746Z,7.56
2022-11-27T19:34:43.045Z,7.60
2022-11-27T19:37:11.231Z,7.62
2022-11-27T19:39:44.198Z,7.62
2022-11-27T19:42:12.294Z,7.63
2022-11-27T19:44:40.712Z,7.59
2022-11-27T19:47:09.624Z,7.55
2022-11-27T19:49:37.707Z,7.58
2022-11-27T19:52:05.881Z,7.58
2022-11-27T19:54:33.958Z,7.68
2022-11-27T19:57:04.328Z,7.65
2022-11-27T19:59:32.356Z,7.74
2022-11-27T20:02:00.404Z,7.73
2022-11-27T20:04:28.409Z,7.71
2022-11-27T20:06:56.279Z,7.63
2022-11-27T20:09:24.498Z,7.72
2022-11-27T20:11:52.833Z,7.87
2022-11-27T20:14:22.453Z,7.75
2022-11-27T20:16:50.437Z,7.66
2022-11-27T20:19:19.080Z,7.61
2022-11-27T20:21:46.940Z,7.59
2022-11-27T20:24:15.124Z,7.55
2022-11-27T20:26:43.362Z,7.55
2022-11-27T20:29:11.955Z,7.56
2022-11-27T20:31:43.731Z,7.58
2022-11-27T20:34:15.812Z,7.63
2022-11-27T20:36:43.822Z,7.70
2022-11-27T20:39:16.337Z,7.69
2022-11-27T20:41:47.634Z,7.67
2022-11-27T20:44:16.556Z,7.64
2022-11-27T20:46:46.113Z,7.72
2022-11-27T20:49:13.936Z,7.74
2022-11-27T20:51:42.468Z,7.86
2022-11-27T20:54:11.850Z,7.95
2022-11-27T20:56:40.877Z,7.82
2022-11-27T20:59:08.833Z,7.75
2022-11-27T21:01:37.343Z,7.68
2022-11-27T21:04:17.100Z,7.83
2022-11-27T21:06:45.850Z,7.84
2022-11-27T21:09:14.603Z,7.77
2022-11-27T21:11:42.890Z,7.70
2022-11-27T21:14:12.340Z,7.78
2022-11-27T21:16:41.795Z,7.75
2022-11-27T21:19:16.945Z,7.85
2022-11-27T21:21:44.912Z,7.86
2022-11-27T21:24:13.725Z,7.88
2022-11-27T21:26:41.781Z,7.82
2022-11-27T21:29:09.947Z,7.85
2022-11-27T21:31:39.371Z,7.87
2022-11-27T21:34:11.375Z,7.86
2022-11-27T21:36:40.597Z,7.75
2022-11-27T21:39:09.348Z,7.84
2022-11-27T21:41:37.416Z,7.80
2022-11-27T21:44:05.677Z,7.78
2022-11-27T21:46:36.176Z,7.87
2022-11-27T21:49:05.890Z,7.97
2022-11-27T21:51:33.700Z,8.02
2022-11-27T21:54:02.852Z,8.01
2022-11-27T21:56:34.557Z,8.04
2022-11-27T21:59:03.053Z,7.99
2022-11-27T22:01:31.041Z,8.00
2022-11-27T22:03:58.981Z,7.95
2022-11-27T22:06:28.494Z,7.94
2022-11-27T22:09:03.134Z,7.90
2022-11-27T22:11:34.316Z,7.98
2022-11-27T22:14:07.376Z,8.04
2022-11-27T22:16:40.028Z,8.05
2022-11-27T22:19:14.040Z,8.07
2022-11-27T22:21:42.061Z,8.11
2022-11-27T22:24:15.135Z,8.11
2022-11-27T22:26:48.210Z,8.03
2022-11-27T22:29:19.610Z,7.98
2022-11-27T22:31:47.572Z,7.86
2022-11-27T22:34:18.967Z,7.75
2022-11-27T22:36:47.007Z,7.61
2022-11-27T22:39:14.793Z,7.49
2022-11-27T22:41:43.004Z,7.38
2022-11-27T22:44:14.037Z,7.28
2022-11-27T22:46:42.309Z,7.40
2022-11-27T22:49:11.197Z,7.40
2022-11-27T22:51:39.573Z,7.40
2022-11-27T22:54:07.989Z,7.42
2022-11-27T22:56:36.245Z,7.52
2022-11-27T22:59:31.828Z,7.47
2022-11-27T23:01:54.762Z,7.36
2022-11-27T23:04:22.788Z,7.21
2022-11-27T23:06:50.621Z,7.09
2022-11-27T23:09:18.851Z,6.93
2022-11-27T23:11:47.096Z,6.85
2022-11-27T23:14:14.927Z,6.76
2022-11-27T23:16:43.260Z,6.76
2022-11-27T23:19:13.030Z,6.66
2022-11-27T23:21:40.976Z,6.67
2022-11-27T23:24:13.560Z,6.61
2022-11-27T23:26:41.812Z,6.48
2022-11-27T23:29:10.290Z,6.34
2022-11-27T23:31:39.016Z,6.22
2022-11-27T23:34:08.282Z,6.16
2022-11-27T23:36:38.484Z,6.13
2022-11-27T23:39:07.775Z,6.04
2022-11-27T23:41:35.590Z,6.02
2022-11-27T23:44:04.698Z,6.02
2022-11-27T23:46:32.576Z,5.98
2022-11-27T23:49:01.018Z,5.89
2022-11-27T23:51:30.049Z,5.92
2022-11-27T23:53:59.509Z,5.90
2022-11-27T23:56:28.199Z,5.87
2022-11-27T23:58:56.586Z,5.91
